createdAt,value
2023-05-23T00:01:07.301Z,96188.03
2023-05-23T00:04:04.804Z,96183.13
2023-05-23T00:07:02.034Z,96193.94
2023-05-23T00:09:58.881Z,96192.13
2023-05-23T00:12:58.148Z,96181.06
2023-05-23T00:15:55.019Z,96188.22
2023-05-23T00:18:51.966Z,96185.88
2023-05-23T00:21:49.171Z,96186.34
2023-05-23T00:24:46.044Z,96182.50
2023-05-23T00:27:42.910Z,96188.44
2023-05-23T00:30:39.886Z,96185.88
2023-05-23T00:33:36.770Z,96179.75
2023-05-23T00:36:37.782Z,96182.50
2023-05-23T00:39:34.618Z,96169.38
2023-05-23T00:42:33.052Z,96177.16
2023-05-23T00:45:29.968Z,96177.75
2023-05-23T00:48:27.415Z,96181.66
2023-05-23T00:51:24.652Z,96178.88
2023-05-23T00:54:28.644Z,96174.59
2023-05-23T00:57:25.589Z,96171.00
2023-05-23T01:00:24.642Z,96169.56
2023-05-23T01:03:21.824Z,96176.94
2023-05-23T01:06:20.681Z,96178.22
2023-05-23T01:09:18.515Z,96177.94
2023-05-23T01:12:27.754Z,96182.06
2023-05-23T01:16:03.143Z,96185.94
2023-05-23T01:19:31.427Z,96183.81
2023-05-23T01:22:35.265Z,96197.78
2023-05-23T01:25:45.766Z,96193.72
2023-05-23T01:29:10.354Z,96204.47
2023-05-23T01:32:12.263Z,96205.94
2023-05-23T01:35:10.705Z,96202.63
2023-05-23T01:38:07.569Z,96213.16
2023-05-23T01:41:04.424Z,96213.09
2023-05-23T01:44:01.603Z,96205.94
2023-05-23T01:46:58.583Z,96205.91
2023-05-23T01:49:57.109Z,96200.81
2023-05-23T01:52:56.053Z,96213.06
2023-05-23T01:55:53.091Z,96210.63
2023-05-23T01:58:50.068Z,96203.28
2023-05-23T02:01:47.083Z,96215.75
2023-05-23T02:04:43.934Z,96211.72
2023-05-23T02:07:41.025Z,96219.84
2023-05-23T02:10:37.877Z,96216.31
2023-05-23T02:13:35.137Z,96229.56
2023-05-23T02:16:33.277Z,96229.06
2023-05-23T02:19:30.405Z,96227.56
2023-05-23T02:22:27.312Z,96218.66
2023-05-23T02:25:24.151Z,96218.13
2023-05-23T02:28:21.020Z,96226.16
2023-05-23T02:31:17.992Z,96229.31
2023-05-23T02:34:14.906Z,96233.31
2023-05-23T02:37:11.752Z,96233.81
2023-05-23T02:40:09.247Z,96232.25
2023-05-23T02:43:06.099Z,96230.72
2023-05-23T02:46:02.988Z,96224.19
2023-05-23T02:48:59.860Z,96246.44
2023-05-23T02:51:56.723Z,96244.09
2023-05-23T02:54:53.601Z,96252.72
2023-05-23T02:57:51.258Z,96248.09
2023-05-23T03:00:48.168Z,96243.81
2023-05-23T03:03:45.072Z,96241.66
2023-05-23T03:06:44.423Z,96241.94
2023-05-23T03:09:41.465Z,96250.72
2023-05-23T03:12:38.450Z,96253.56
2023-05-23T03:15:35.443Z,96251.22
2023-05-23T03:18:32.434Z,96255.44
2023-05-23T03:21:29.492Z,96246.75
2023-05-23T03:24:26.578Z,96253.72
2023-05-23T03:27:23.583Z,96263.63
2023-05-23T03:30:21.014Z,96260.63
2023-05-23T03:33:17.989Z,96267.97
2023-05-23T03:36:14.988Z,96283.56
2023-05-23T03:39:12.463Z,96268.31
2023-05-23T03:42:09.447Z,96277.44
2023-05-23T03:45:07.170Z,96265.91
2023-05-23T03:48:04.251Z,96269.81
2023-05-23T03:51:01.265Z,96277.00
2023-05-23T03:53:58.385Z,96276.75
2023-05-23T03:56:55.583Z,96275.59
2023-05-23T03:59:53.063Z,96276.53
2023-05-23T04:02:52.069Z,96275.97
2023-05-23T04:05:49.480Z,96280.75
2023-05-23T04:08:46.653Z,96281.88
2023-05-23T04:11:44.441Z,96272.16
2023-05-23T04:14:41.461Z,96278.50
2023-05-23T04:17:39.078Z,96282.31
2023-05-23T04:20:36.178Z,96284.50
2023-05-23T04:23:33.115Z,96283.78
2023-05-23T04:26:38.935Z,96289.22
2023-05-23T04:29:36.173Z,96281.22
2023-05-23T04:32:33.066Z,96283.16
2023-05-23T04:35:29.970Z,96280.44
2023-05-23T04:38:27.765Z,96274.75
2023-05-23T04:41:24.709Z,96285.03
2023-05-23T04:44:21.618Z,96281.16
2023-05-23T04:47:19.188Z,96285.94
2023-05-23T04:50:16.675Z,96297.63
2023-05-23T04:53:13.656Z,96281.31
2023-05-23T04:56:10.679Z,96290.44
2023-05-23T04:59:08.853Z,96295.28
2023-05-23T05:02:06.580Z,96300.34
2023-05-23T05:05:04.317Z,96298.28
2023-05-23T05:08:01.187Z,96304.19
2023-05-23T05:10:58.193Z,96304.31
2023-05-23T05:13:55.112Z,96307.31
2023-05-23T05:16:52.111Z,96303.72
2023-05-23T05:19:49.036Z,96315.47
2023-05-23T05:22:46.760Z,96308.91
2023-05-23T05:25:43.662Z,96310.38
2023-05-23T05:28:41.301Z,96304.97
2023-05-23T05:31:38.390Z,96308.63
2023-05-23T05:34:35.577Z,96314.78
2023-05-23T05:37:32.594Z,96310.00
2023-05-23T05:40:29.593Z,96315.28
2023-05-23T05:43:26.605Z,96315.34
2023-05-23T05:46:23.670Z,96325.47
2023-05-23T05:49:20.731Z,96325.13
2023-05-23T05:52:17.660Z,96329.81
2023-05-23T05:55:14.657Z,96330.75
2023-05-23T05:58:11.548Z,96333.38
2023-05-23T06:01:08.487Z,96333.28
2023-05-23T06:04:05.521Z,96333.34
2023-05-23T06:07:02.580Z,96338.13
2023-05-23T06:09:59.443Z,96328.13
2023-05-23T06:12:58.105Z,96336.16
2023-05-23T06:15:55.050Z,96341.56
2023-05-23T06:18:51.938Z,96346.13
2023-05-23T06:21:48.948Z,96344.25
2023-05-23T06:24:46.596Z,96346.94
2023-05-23T06:27:44.860Z,96344.81
2023-05-23T06:30:42.130Z,96350.66
2023-05-23T06:33:39.322Z,96354.81
2023-05-23T06:36:36.360Z,96363.66
2023-05-23T06:39:33.289Z,96363.66
2023-05-23T06:42:30.402Z,96367.94
2023-05-23T06:45:27.360Z,96374.81
2023-05-23T06:48:24.209Z,96377.19
2023-05-23T06:51:21.175Z,96379.47
2023-05-23T06:54:19.063Z,96389.25
2023-05-23T06:57:16.387Z,96380.03
2023-05-23T07:00:14.168Z,96381.03
2023-05-23T07:03:11.358Z,96380.97
2023-05-23T07:06:08.741Z,96376.38
2023-05-23T07:09:05.846Z,96389.63
2023-05-23T07:12:02.747Z,96384.22
2023-05-23T07:14:59.691Z,96395.13
2023-05-23T07:17:56.725Z,96399.03
2023-05-23T07:20:53.606Z,96397.81
2023-05-23T07:23:50.631Z,96396.84
2023-05-23T07:26:47.480Z,96397.00
2023-05-23T07:29:44.345Z,96403.09
2023-05-23T07:32:41.229Z,96402.75
2023-05-23T07:35:38.137Z,96400.34
2023-05-23T07:38:35.003Z,96402.34
2023-05-23T07:41:31.956Z,96402.66
2023-05-23T07:44:29.090Z,96423.66
2023-05-23T07:47:26.019Z,96405.16
2023-05-23T07:50:22.926Z,96414.25
2023-05-23T07:53:19.773Z,96409.63
2023-05-23T07:56:17.056Z,96418.78
2023-05-23T07:59:13.935Z,96421.47
2023-05-23T08:02:10.917Z,96419.78
2023-05-23T08:05:08.630Z,96421.34
2023-05-23T08:08:05.499Z,96417.69
2023-05-23T08:11:02.784Z,96427.97
2023-05-23T08:14:01.258Z,96424.09
2023-05-23T08:16:58.658Z,96422.59
2023-05-23T08:19:55.729Z,96422.97
2023-05-23T08:22:52.884Z,96431.34
2023-05-23T08:25:49.912Z,96424.72
2023-05-23T08:28:46.969Z,96429.44
2023-05-23T08:31:43.879Z,96432.00
2023-05-23T08:34:41.912Z,96440.63
2023-05-23T08:37:39.069Z,96429.16
2023-05-23T08:40:37.236Z,96426.97
2023-05-23T08:43:34.106Z,96425.97
2023-05-23T08:46:33.980Z,96426.81
2023-05-23T08:49:31.794Z,96428.22
2023-05-23T08:52:33.482Z,96425.47
2023-05-23T08:55:30.829Z,96437.34
2023-05-23T08:58:32.013Z,96426.34
2023-05-23T09:01:30.689Z,96429.88
2023-05-23T09:04:29.160Z,96428.38
2023-05-23T09:07:27.018Z,96447.31
2023-05-23T09:10:26.839Z,96439.75
2023-05-23T09:13:23.770Z,96455.28
2023-05-23T09:16:21.254Z,96441.22
2023-05-23T09:19:19.106Z,96453.09
2023-05-23T09:22:16.134Z,96456.66
2023-05-23T09:25:13.019Z,96448.88
2023-05-23T09:28:09.879Z,96449.84
2023-05-23T09:31:09.110Z,96451.00
2023-05-23T09:34:06.992Z,96460.28
2023-05-23T09:37:04.221Z,96457.78
2023-05-23T09:40:06.440Z,96472.06
2023-05-23T09:43:05.480Z,96467.84
2023-05-23T09:46:12.059Z,96465.66
2023-05-23T09:49:18.484Z,96467.84
2023-05-23T09:52:15.396Z,96458.47
2023-05-23T09:55:12.510Z,96474.78
2023-05-23T09:58:10.095Z,96461.13
2023-05-23T10:01:11.622Z,96472.66
2023-05-23T10:04:09.661Z,96472.59
2023-05-23T10:07:23.420Z,96476.84
2023-05-23T10:10:20.794Z,96485.56
2023-05-23T10:13:19.270Z,96476.63
2023-05-23T10:16:31.316Z,96485.28
2023-05-23T10:19:53.670Z,96483.66
2023-05-23T10:22:51.236Z,96478.88
2023-05-23T10:25:48.871Z,96481.16
2023-05-23T10:28:49.944Z,96468.97
2023-05-23T10:31:47.529Z,96461.38
2023-05-23T10:35:23.951Z,96459.94
2023-05-23T10:38:43.394Z,96452.06
2023-05-23T10:41:49.051Z,96441.69
2023-05-23T10:44:45.965Z,96454.63
2023-05-23T10:47:42.914Z,96451.63
2023-05-23T10:50:41.743Z,96465.75
2023-05-23T10:53:42.772Z,96461.59
2023-05-23T10:56:39.566Z,96457.72
2023-05-23T10:59:40.950Z,96471.41
2023-05-23T11:02:38.335Z,96480.06
2023-05-23T11:05:38.550Z,96488.19
2023-05-23T11:08:48.315Z,96485.00
2023-05-23T11:12:05.741Z,96497.69
2023-05-23T11:15:02.683Z,96492.47
2023-05-23T11:17:59.651Z,96501.00
2023-05-23T11:20:59.812Z,96501.81
2023-05-23T11:23:56.787Z,96508.63
2023-05-23T11:27:04.124Z,96506.66
2023-05-23T11:30:14.324Z,96499.53
2023-05-23T11:33:16.538Z,96505.28
2023-05-23T11:36:13.498Z,96504.19
2023-05-23T11:39:10.800Z,96515.09
2023-05-23T11:42:07.696Z,96508.16
2023-05-23T11:45:08.990Z,96515.94
2023-05-23T11:48:17.001Z,96515.63
2023-05-23T11:51:15.063Z,96522.56
2023-05-23T11:54:12.068Z,96515.75
2023-05-23T11:57:09.890Z,96522.00
2023-05-23T12:00:08.905Z,96523.38
2023-05-23T12:03:08.451Z,96518.53
2023-05-23T12:06:05.747Z,96520.00
2023-05-23T12:09:02.831Z,96521.13
2023-05-23T12:11:59.863Z,96519.09
2023-05-23T12:14:57.570Z,96537.16
2023-05-23T12:17:56.564Z,96536.69
2023-05-23T12:20:53.471Z,96534.00
2023-05-23T12:23:50.357Z,96536.88
2023-05-23T12:26:57.559Z,96533.25
2023-05-23T12:30:13.388Z,96531.00
2023-05-23T12:33:12.011Z,96539.69
2023-05-23T12:36:08.922Z,96539.44
2023-05-23T12:39:06.223Z,96545.03
2023-05-23T12:42:10.021Z,96549.97
2023-05-23T12:45:08.117Z,96545.16
2023-05-23T12:48:07.114Z,96553.94
2023-05-23T12:51:04.506Z,96549.56
2023-05-23T12:54:02.019Z,96554.91
2023-05-23T12:56:58.952Z,96558.78
2023-05-23T12:59:55.798Z,96552.53
2023-05-23T13:02:52.745Z,96559.03
2023-05-23T13:05:49.640Z,96561.38
2023-05-23T13:08:46.853Z,96563.38
2023-05-23T13:11:44.363Z,96565.81
2023-05-23T13:14:42.251Z,96559.19
2023-05-23T13:17:39.169Z,96547.13
2023-05-23T13:20:36.021Z,96561.66
2023-05-23T13:23:33.022Z,96562.53
2023-05-23T13:26:29.918Z,96565.97
2023-05-23T13:29:26.809Z,96563.94
2023-05-23T13:32:23.708Z,96554.06
2023-05-23T13:35:21.109Z,96559.28
2023-05-23T13:38:21.586Z,96561.69
2023-05-23T13:41:18.577Z,96566.22
2023-05-23T13:44:15.466Z,96563.19
2023-05-23T13:47:14.516Z,96560.66
2023-05-23T13:50:11.731Z,96574.06
2023-05-23T13:53:14.487Z,96565.75
2023-05-23T13:56:11.557Z,96573.13
2023-05-23T13:59:08.422Z,96568.25
2023-05-23T14:02:06.050Z,96574.78
2023-05-23T14:05:03.570Z,96576.38
2023-05-23T14:08:00.509Z,96584.72
2023-05-23T14:10:57.681Z,96585.31
2023-05-23T14:13:54.534Z,96586.13
2023-05-23T14:16:52.094Z,96593.28
2023-05-23T14:19:49.213Z,96596.31
2023-05-23T14:22:46.098Z,96589.00
2023-05-23T14:25:43.610Z,96582.53
2023-05-23T14:28:40.720Z,96591.25
2023-05-23T14:31:37.628Z,96588.09
2023-05-23T14:34:34.547Z,96588.09
2023-05-23T14:37:31.398Z,96596.13
2023-05-23T14:40:28.487Z,96587.34
2023-05-23T14:43:25.439Z,96596.25
2023-05-23T14:46:22.278Z,96597.69
2023-05-23T14:49:19.290Z,96597.94
2023-05-23T14:52:17.497Z,96602.38
2023-05-23T14:55:14.371Z,96600.19
2023-05-23T14:58:11.267Z,96603.88
2023-05-23T15:01:08.244Z,96603.81
2023-05-23T15:04:05.769Z,96609.53
2023-05-23T15:07:02.822Z,96620.09
2023-05-23T15:09:59.699Z,96615.41
2023-05-23T15:12:56.672Z,96617.56
2023-05-23T15:15:54.351Z,96619.28
2023-05-23T15:18:51.277Z,96618.00
2023-05-23T15:21:51.161Z,96620.69
2023-05-23T15:24:48.749Z,96622.16
2023-05-23T15:27:45.695Z,96613.59
2023-05-23T15:30:43.971Z,96614.38
2023-05-23T15:33:43.589Z,96606.00
2023-05-23T15:36:40.940Z,96609.22
2023-05-23T15:39:37.811Z,96607.19
2023-05-23T15:42:35.915Z,96602.47
2023-05-23T15:45:32.784Z,96607.19
2023-05-23T15:48:29.698Z,96609.84
2023-05-23T15:51:29.536Z,96607.75
2023-05-23T15:54:26.459Z,96617.19
2023-05-23T15:57:23.512Z,96625.16
2023-05-23T16:00:23.695Z,96620.06
2023-05-23T16:03:22.907Z,96609.66
2023-05-23T16:06:19.849Z,96624.06
2023-05-23T16:09:16.792Z,96615.44
2023-05-23T16:12:13.742Z,96615.56
2023-05-23T16:15:10.887Z,96617.63
2023-05-23T16:18:07.952Z,96627.38
2023-05-23T16:21:05.105Z,96623.47
2023-05-23T16:24:02.020Z,96630.91
2023-05-23T16:27:00.305Z,96636.72
2023-05-23T16:29:57.164Z,96638.06
2023-05-23T16:32:57.083Z,96634.75
2023-05-23T16:35:54.179Z,96631.28
2023-05-23T16:38:54.080Z,96633.75
2023-05-23T16:41:52.211Z,96642.03
2023-05-23T16:44:49.350Z,96640.66
2023-05-23T16:47:46.341Z,96655.66
2023-05-23T16:50:43.456Z,96662.81
2023-05-23T16:53:40.716Z,96662.47
2023-05-23T16:56:39.106Z,96660.38
2023-05-23T16:59:35.984Z,96661.44
2023-05-23T17:02:33.085Z,96667.47
2023-05-23T17:05:30.206Z,96669.88
2023-05-23T17:08:27.136Z,96672.91
2023-05-23T17:11:25.279Z,96666.53
2023-05-23T17:14:22.130Z,96677.75
2023-05-23T17:17:19.184Z,96683.63
2023-05-23T17:20:16.272Z,96680.72
2023-05-23T17:23:13.135Z,96689.59
2023-05-23T17:26:11.113Z,96684.66
2023-05-23T17:29:08.057Z,96701.69
2023-05-23T17:32:05.323Z,96695.84
2023-05-23T17:35:02.286Z,96702.97
2023-05-23T17:38:00.679Z,96699.63
2023-05-23T17:40:57.563Z,96713.56
2023-05-23T17:43:54.401Z,96709.56
2023-05-23T17:46:51.338Z,96712.28
2023-05-23T17:49:48.275Z,96717.44
2023-05-23T17:52:45.584Z,96719.72
2023-05-23T17:55:42.463Z,96723.34
2023-05-23T17:58:41.090Z,96716.88
2023-05-23T18:01:39.392Z,96721.47
2023-05-23T18:04:36.631Z,96729.66
2023-05-23T18:07:33.537Z,96727.97
2023-05-23T18:10:30.414Z,96726.72
2023-05-23T18:13:27.282Z,96721.16
2023-05-23T18:16:24.100Z,96729.81
2023-05-23T18:19:21.090Z,96733.59
2023-05-23T18:22:19.801Z,96740.75
2023-05-23T18:25:19.546Z,96731.09
2023-05-23T18:28:16.395Z,96742.84
2023-05-23T18:31:13.237Z,96737.94
2023-05-23T18:34:13.050Z,96745.34
2023-05-23T18:37:09.986Z,96755.56
2023-05-23T18:40:09.565Z,96747.75
2023-05-23T18:43:06.474Z,96764.44
2023-05-23T18:46:03.394Z,96763.88
2023-05-23T18:49:00.671Z,96773.84
2023-05-23T18:51:58.312Z,96770.38
2023-05-23T18:54:55.248Z,96777.94
2023-05-23T18:57:53.813Z,96767.84
2023-05-23T19:00:51.026Z,96784.91
2023-05-23T19:03:47.945Z,96784.31
2023-05-23T19:06:45.874Z,96784.34
2023-05-23T19:09:42.741Z,96804.03
2023-05-23T19:12:39.750Z,96798.66
2023-05-23T19:15:36.833Z,96804.97
2023-05-23T19:18:33.683Z,96808.63
2023-05-23T19:21:31.873Z,96801.97
2023-05-23T19:24:28.721Z,96803.88
2023-05-23T19:27:25.570Z,96810.28
2023-05-23T19:30:22.559Z,96803.81
2023-05-23T19:33:19.537Z,96808.56
2023-05-23T19:36:16.445Z,96808.66
2023-05-23T19:39:13.402Z,96817.28
2023-05-23T19:42:10.250Z,96817.47
2023-05-23T19:45:07.931Z,96816.66
2023-05-23T19:48:04.954Z,96813.31
2023-05-23T19:51:01.913Z,96816.75
2023-05-23T19:53:58.843Z,96817.75
2023-05-23T19:56:55.720Z,96818.78
2023-05-23T19:59:52.691Z,96836.03
2023-05-23T20:02:50.427Z,96839.44
2023-05-23T20:05:48.135Z,96836.88
2023-05-23T20:08:44.966Z,96832.56
2023-05-23T20:11:42.884Z,96839.75
2023-05-23T20:14:39.765Z,96841.25
2023-05-23T20:17:36.771Z,96848.00
2023-05-23T20:20:33.693Z,96836.88
2023-05-23T20:23:30.531Z,96840.09
2023-05-23T20:26:27.620Z,96843.78
2023-05-23T20:29:24.534Z,96850.22
2023-05-23T20:32:21.416Z,96855.22
2023-05-23T20:35:18.373Z,96846.22
2023-05-23T20:38:18.493Z,96854.44
2023-05-23T20:41:15.569Z,96859.31
2023-05-23T20:44:14.134Z,96858.16
2023-05-23T20:47:13.254Z,96861.38
2023-05-23T20:50:12.739Z,96869.75
2023-05-23T20:53:09.675Z,96867.41
2023-05-23T20:56:10.372Z,96873.88
2023-05-23T20:59:08.103Z,96869.63
2023-05-23T21:02:05.192Z,96878.16
2023-05-23T21:05:02.070Z,96878.66
2023-05-23T21:07:58.926Z,96879.22
2023-05-23T21:10:56.100Z,96878.84
2023-05-23T21:13:53.075Z,96883.31
2023-05-23T21:16:49.926Z,96885.00
2023-05-23T21:19:46.834Z,96882.91
2023-05-23T21:22:43.686Z,96890.50
2023-05-23T21:25:40.608Z,96884.44
2023-05-23T21:28:37.452Z,96889.50
2023-05-23T21:31:41.603Z,96897.38
2023-05-23T21:34:39.018Z,96896.16
2023-05-23T21:37:36.082Z,96899.06
2023-05-23T21:40:32.928Z,96886.72
2023-05-23T21:43:29.765Z,96894.56
2023-05-23T21:46:26.715Z,96892.78
2023-05-23T21:49:23.589Z,96894.72
2023-05-23T21:52:20.806Z,96896.72
2023-05-23T21:55:17.813Z,96900.56
2023-05-23T21:58:16.165Z,96895.97
2023-05-23T22:01:13.062Z,96887.75
2023-05-23T22:04:09.925Z,96899.13
2023-05-23T22:07:06.805Z,96900.91
2023-05-23T22:10:03.893Z,96911.19
2023-05-23T22:13:00.979Z,96904.47
2023-05-23T22:15:57.879Z,96907.50
2023-05-23T22:18:58.111Z,96903.72
2023-05-23T22:21:55.851Z,96895.72
2023-05-23T22:24:53.523Z,96902.16
2023-05-23T22:27:50.599Z,96897.59
2023-05-23T22:30:47.525Z,96889.44
2023-05-23T22:33:44.513Z,96888.88
2023-05-23T22:36:41.386Z,96887.78
2023-05-23T22:39:38.204Z,96877.59
2023-05-23T22:42:35.108Z,96884.66
2023-05-23T22:45:40.055Z,96874.59
2023-05-23T22:48:37.909Z,96889.97
2023-05-23T22:51:35.190Z,96886.59
2023-05-23T22:54:32.033Z,96883.28
2023-05-23T22:57:28.922Z,96889.13
2023-05-23T23:00:26.191Z,96889.00
2023-05-23T23:03:23.169Z,96881.50
2023-05-23T23:06:21.048Z,96889.13
2023-05-23T23:09:17.937Z,96893.69
2023-05-23T23:12:14.770Z,96892.84
2023-05-23T23:15:11.816Z,96896.44
2023-05-23T23:18:09.337Z,96896.38
2023-05-23T23:21:06.389Z,96891.88
2023-05-23T23:24:03.522Z,96892.28
2023-05-23T23:27:00.472Z,96895.97
2023-05-23T23:30:01.021Z,96883.50
2023-05-23T23:32:58.060Z,96880.13
2023-05-23T23:35:54.965Z,96880.69
2023-05-23T23:38:51.797Z,96883.72
2023-05-23T23:41:48.864Z,96883.84
2023-05-23T23:44:45.707Z,96884.28
2023-05-23T23:47:42.840Z,96882.81
2023-05-23T23:50:40.087Z,96883.91
2023-05-23T23:53:37.094Z,96877.13
2023-05-23T23:56:33.942Z,96869.84
2023-05-23T23:59:30.785Z,96878.50
